sensor_id;sensor_type;location;lat;lon;timestamp;pressure;altitude;pressure_sealevel;temperature;humidity
62436;BME280;48480;50.252;18.848;2023-01-25T00:02:17;100577.59;;;1.92;83.92
62436;BME280;48480;50.252;18.848;2023-01-25T00:04:43;100581.05;;;1.89;83.96
62436;BME280;48480;50.252;18.848;2023-01-25T00:07:08;100580.11;;;1.84;84.12
62436;BME280;48480;50.252;18.848;2023-01-25T00:09:34;100576.49;;;1.79;84.31
62436;BME280;48480;50.252;18.848;2023-01-25T00:11:59;100577.11;;;1.77;84.44
62436;BME280;48480;50.252;18.848;2023-01-25T00:14:25;100579.48;;;1.77;84.49
62436;BME280;48480;50.252;18.848;2023-01-25T00:16:51;100574.50;;;1.81;84.71
62436;BME280;48480;50.252;18.848;2023-01-25T00:19:16;100574.08;;;1.86;84.66
62436;BME280;48480;50.252;18.848;2023-01-25T00:21:42;100566.96;;;1.89;84.47
62436;BME280;48480;50.252;18.848;2023-01-25T00:24:08;100563.16;;;1.95;84.37
62436;BME280;48480;50.252;18.848;2023-01-25T00:26:36;100566.81;;;1.99;84.23
62436;BME280;48480;50.252;18.848;2023-01-25T00:29:03;100567.57;;;1.92;83.96
62436;BME280;48480;50.252;18.848;2023-01-25T00:36:27;100564.34;;;1.95;84.24
62436;BME280;48480;50.252;18.848;2023-01-25T00:38:56;100565.31;;;1.95;84.18
62436;BME280;48480;50.252;18.848;2023-01-25T00:41:22;100569.70;;;1.99;84.18
62436;BME280;48480;50.252;18.848;2023-01-25T00:43:47;100577.82;;;1.96;84.05
62436;BME280;48480;50.252;18.848;2023-01-25T00:46:15;100579.08;;;1.97;84.19
62436;BME280;48480;50.252;18.848;2023-01-25T00:48:41;100578.89;;;1.97;84.11
62436;BME280;48480;50.252;18.848;2023-01-25T00:51:06;100573.38;;;1.96;84.12
62436;BME280;48480;50.252;18.848;2023-01-25T00:53:33;100573.63;;;1.97;84.08
62436;BME280;48480;50.252;18.848;2023-01-25T00:55:59;100574.77;;;2.02;83.98
62436;BME280;48480;50.252;18.848;2023-01-25T00:58:24;100572.16;;;1.99;83.65
62436;BME280;48480;50.252;18.848;2023-01-25T01:00:54;100567.31;;;1.92;83.81
62436;BME280;48480;50.252;18.848;2023-01-25T01:03:20;100570.00;;;1.95;84.12
62436;BME280;48480;50.252;18.848;2023-01-25T01:05:46;100570.03;;;2.00;84.13
62436;BME280;48480;50.252;18.848;2023-01-25T01:08:12;100566.94;;;2.02;83.95
62436;BME280;48480;50.252;18.848;2023-01-25T01:10:38;100559.14;;;2.09;84.06
62436;BME280;48480;50.252;18.848;2023-01-25T01:13:04;100553.50;;;2.15;83.81
62436;BME280;48480;50.252;18.848;2023-01-25T01:15:29;100552.06;;;2.21;83.62
62436;BME280;48480;50.252;18.848;2023-01-25T01:17:55;100545.28;;;2.25;83.42
62436;BME280;48480;50.252;18.848;2023-01-25T01:20:20;100537.78;;;2.26;83.19
62436;BME280;48480;50.252;18.848;2023-01-25T01:22:46;100531.64;;;2.23;83.01
62436;BME280;48480;50.252;18.848;2023-01-25T01:25:11;100529.88;;;2.25;83.30
62436;BME280;48480;50.252;18.848;2023-01-25T01:27:38;100533.09;;;2.28;83.02
62436;BME280;48480;50.252;18.848;2023-01-25T01:30:05;100532.23;;;2.29;82.92
62436;BME280;48480;50.252;18.848;2023-01-25T01:32:30;100528.36;;;2.26;82.32
62436;BME280;48480;50.252;18.848;2023-01-25T01:34:56;100524.50;;;2.16;82.22
62436;BME280;48480;50.252;18.848;2023-01-25T01:37:21;100520.42;;;2.05;82.30
62436;BME280;48480;50.252;18.848;2023-01-25T01:39:47;100523.48;;;2.00;82.77
62436;BME280;48480;50.252;18.848;2023-01-25T01:42:12;100518.39;;;1.98;82.91
62436;BME280;48480;50.252;18.848;2023-01-25T01:44:52;100517.27;;;1.96;82.75
62436;BME280;48480;50.252;18.848;2023-01-25T01:47:25;100516.77;;;1.97;82.99
62436;BME280;48480;50.252;18.848;2023-01-25T01:50:03;100514.16;;;2.01;83.09
62436;BME280;48480;50.252;18.848;2023-01-25T01:52:35;100510.70;;;1.99;82.72
62436;BME280;48480;50.252;18.848;2023-01-25T01:57:45;100503.94;;;1.98;82.80
62436;BME280;48480;50.252;18.848;2023-01-25T02:00:16;100500.82;;;1.93;82.60
62436;BME280;48480;50.252;18.848;2023-01-25T02:02:44;100497.80;;;1.95;82.70
62436;BME280;48480;50.252;18.848;2023-01-25T02:05:23;100492.60;;;1.96;82.64
62436;BME280;48480;50.252;18.848;2023-01-25T02:07:53;100487.73;;;2.01;82.87
62436;BME280;48480;50.252;18.848;2023-01-25T02:10:21;100486.08;;;2.07;82.96
62436;BME280;48480;50.252;18.848;2023-01-25T02:12:48;100482.48;;;2.09;82.48
62436;BME280;48480;50.252;18.848;2023-01-25T02:15:13;100478.90;;;2.07;82.51
62436;BME280;48480;50.252;18.848;2023-01-25T02:17:41;100480.52;;;2.03;82.46
62436;BME280;48480;50.252;18.848;2023-01-25T02:20:25;100482.71;;;2.05;82.73
62436;BME280;48480;50.252;18.848;2023-01-25T02:22:59;100480.20;;;2.13;82.91
62436;BME280;48480;50.252;18.848;2023-01-25T02:25:27;100481.98;;;2.22;82.79
62436;BME280;48480;50.252;18.848;2023-01-25T02:28:26;100481.80;;;2.27;82.41
62436;BME280;48480;50.252;18.848;2023-01-25T02:30:52;100477.71;;;2.30;82.21
62436;BME280;48480;50.252;18.848;2023-01-25T02:33:18;100474.95;;;2.29;82.13
62436;BME280;48480;50.252;18.848;2023-01-25T02:35:47;100477.14;;;2.30;81.91
62436;BME280;48480;50.252;18.848;2023-01-25T02:38:17;100471.44;;;2.20;81.70
62436;BME280;48480;50.252;18.848;2023-01-25T02:40:53;100483.13;;;2.24;82.14
62436;BME280;48480;50.252;18.848;2023-01-25T02:43:22;100478.17;;;2.25;81.97
62436;BME280;48480;50.252;18.848;2023-01-25T02:45:51;100474.20;;;2.23;81.86
62436;BME280;48480;50.252;18.848;2023-01-25T02:48:21;100474.58;;;2.23;82.05
62436;BME280;48480;50.252;18.848;2023-01-25T02:50:46;100481.02;;;2.26;82.24
62436;BME280;48480;50.252;18.848;2023-01-25T02:53:12;100484.30;;;2.30;82.20
62436;BME280;48480;50.252;18.848;2023-01-25T02:55:37;100486.23;;;2.36;82.10
62436;BME280;48480;50.252;18.848;2023-01-25T02:58:03;100485.17;;;2.39;81.80
62436;BME280;48480;50.252;18.848;2023-01-25T03:00:28;100479.91;;;2.40;81.58
62436;BME280;48480;50.252;18.848;2023-01-25T03:02:54;100471.88;;;2.39;81.30
62436;BME280;48480;50.252;18.848;2023-01-25T03:05:20;100450.52;;;2.24;81.31
62436;BME280;48480;50.252;18.848;2023-01-25T03:07:45;100471.39;;;2.40;81.50
62436;BME280;48480;50.252;18.848;2023-01-25T03:10:11;100475.30;;;2.40;81.40
62436;BME280;48480;50.252;18.848;2023-01-25T03:12:36;100471.01;;;2.41;81.54
62436;BME280;48480;50.252;18.848;2023-01-25T03:15:02;100468.63;;;2.45;81.40
62436;BME280;48480;50.252;18.848;2023-01-25T03:17:28;100470.91;;;2.46;81.07
62436;BME280;48480;50.252;18.848;2023-01-25T03:19:55;100468.70;;;2.46;81.08
62436;BME280;48480;50.252;18.848;2023-01-25T03:22:21;100461.89;;;2.47;81.07
62436;BME280;48480;50.252;18.848;2023-01-25T03:24:46;100464.95;;;2.47;81.01
62436;BME280;48480;50.252;18.848;2023-01-25T03:27:12;100464.83;;;2.43;81.06
62436;BME280;48480;50.252;18.848;2023-01-25T03:29:44;100461.60;;;2.43;81.12
62436;BME280;48480;50.252;18.848;2023-01-25T03:32:10;100457.54;;;2.46;81.03
62436;BME280;48480;50.252;18.848;2023-01-25T03:34:36;100461.12;;;2.48;80.85
62436;BME280;48480;50.252;18.848;2023-01-25T03:37:02;100443.14;;;2.33;80.77
62436;BME280;48480;50.252;18.848;2023-01-25T03:39:28;100460.67;;;2.44;81.03
62436;BME280;48480;50.252;18.848;2023-01-25T03:41:54;100463.38;;;2.47;81.26
62436;BME280;48480;50.252;18.848;2023-01-25T03:44:19;100462.09;;;2.48;81.17
62436;BME280;48480;50.252;18.848;2023-01-25T03:46:45;100459.81;;;2.46;80.86
62436;BME280;48480;50.252;18.848;2023-01-25T03:49:10;100462.91;;;2.41;80.90
62436;BME280;48480;50.252;18.848;2023-01-25T03:51:36;100461.34;;;2.37;81.02
62436;BME280;48480;50.252;18.848;2023-01-25T03:54:02;100458.54;;;2.36;81.24
62436;BME280;48480;50.252;18.848;2023-01-25T03:56:27;100457.62;;;2.39;81.41
62436;BME280;48480;50.252;18.848;2023-01-25T03:58:53;100455.60;;;2.43;81.31
62436;BME280;48480;50.252;18.848;2023-01-25T04:01:18;100453.52;;;2.47;81.33
62436;BME280;48480;50.252;18.848;2023-01-25T04:03:44;100450.70;;;2.50;81.23
62436;BME280;48480;50.252;18.848;2023-01-25T04:06:09;100450.90;;;2.52;81.13
62436;BME280;48480;50.252;18.848;2023-01-25T04:08:35;100447.02;;;2.54;81.22
62436;BME280;48480;50.252;18.848;2023-01-25T04:11:04;100441.09;;;2.54;81.23
62436;BME280;48480;50.252;18.848;2023-01-25T04:13:31;100436.85;;;2.56;81.20
62436;BME280;48480;50.252;18.848;2023-01-25T04:15:59;100436.29;;;2.57;81.08
62436;BME280;48480;50.252;18.848;2023-01-25T04:18:25;100438.39;;;2.59;80.82
62436;BME280;48480;50.252;18.848;2023-01-25T04:20:54;100434.25;;;2.56;80.95
62436;BME280;48480;50.252;18.848;2023-01-25T04:23:21;100431.31;;;2.56;81.01
62436;BME280;48480;50.252;18.848;2023-01-25T04:25:56;100437.46;;;2.58;81.10
62436;BME280;48480;50.252;18.848;2023-01-25T04:28:23;100433.38;;;2.59;81.19
62436;BME280;48480;50.252;18.848;2023-01-25T04:30:48;100429.15;;;2.62;81.00
62436;BME280;48480;50.252;18.848;2023-01-25T04:33:14;100426.19;;;2.65;80.96
62436;BME280;48480;50.252;18.848;2023-01-25T04:35:40;100422.61;;;2.66;80.88
62436;BME280;48480;50.252;18.848;2023-01-25T04:38:05;100424.48;;;2.65;80.91
62436;BME280;48480;50.252;18.848;2023-01-25T04:40:31;100424.80;;;2.65;80.92
62436;BME280;48480;50.252;18.848;2023-01-25T04:42:57;100422.82;;;2.64;81.06
62436;BME280;48480;50.252;18.848;2023-01-25T04:45:23;100421.11;;;2.65;81.06
62436;BME280;48480;50.252;18.848;2023-01-25T04:47:55;100414.04;;;2.66;81.10
62436;BME280;48480;50.252;18.848;2023-01-25T04:50:20;100416.20;;;2.67;81.00
62436;BME280;48480;50.252;18.848;2023-01-25T04:52:46;100417.23;;;2.64;81.16
62436;BME280;48480;50.252;18.848;2023-01-25T04:55:11;100413.48;;;2.65;81.08
62436;BME280;48480;50.252;18.848;2023-01-25T04:57:37;100406.34;;;2.64;81.14
62436;BME280;48480;50.252;18.848;2023-01-25T05:00:03;100405.36;;;2.66;81.09
62436;BME280;48480;50.252;18.848;2023-01-25T05:02:28;100407.27;;;2.67;80.85
62436;BME280;48480;50.252;18.848;2023-01-25T05:04:53;100404.77;;;2.64;80.72
62436;BME280;48480;50.252;18.848;2023-01-25T05:07:19;100406.10;;;2.65;80.90
62436;BME280;48480;50.252;18.848;2023-01-25T05:09:44;100401.44;;;2.68;80.81
62436;BME280;48480;50.252;18.848;2023-01-25T05:12:10;100400.98;;;2.70;80.87
62436;BME280;48480;50.252;18.848;2023-01-25T05:14:38;100401.23;;;2.72;80.64
62436;BME280;48480;50.252;18.848;2023-01-25T05:17:07;100394.91;;;2.73;80.58
62436;BME280;48480;50.252;18.848;2023-01-25T05:19:34;100392.55;;;2.72;80.61
62436;BME280;48480;50.252;18.848;2023-01-25T05:22:01;100390.20;;;2.71;80.66
62436;BME280;48480;50.252;18.848;2023-01-25T05:24:29;100387.50;;;2.71;80.67
62436;BME280;48480;50.252;18.848;2023-01-25T05:26:56;100385.21;;;2.72;80.63
62436;BME280;48480;50.252;18.848;2023-01-25T05:29:35;100384.27;;;2.73;80.65
62436;BME280;48480;50.252;18.848;2023-01-25T05:32:07;100386.06;;;2.73;80.57
62436;BME280;48480;50.252;18.848;2023-01-25T05:34:33;100387.48;;;2.74;80.50
62436;BME280;48480;50.252;18.848;2023-01-25T05:37:00;100385.40;;;2.74;80.36
62436;BME280;48480;50.252;18.848;2023-01-25T05:39:26;100382.73;;;2.76;80.34
62436;BME280;48480;50.252;18.848;2023-01-25T05:41:51;100383.31;;;2.75;80.37
62436;BME280;48480;50.252;18.848;2023-01-25T05:44:17;100384.09;;;2.75;80.34
62436;BME280;48480;50.252;18.848;2023-01-25T05:46:43;100388.63;;;2.73;80.24
62436;BME280;48480;50.252;18.848;2023-01-25T05:49:09;100387.05;;;2.72;80.21
62436;BME280;48480;50.252;18.848;2023-01-25T05:51:36;100387.20;;;2.68;80.40
62436;BME280;48480;50.252;18.848;2023-01-25T05:54:06;100385.16;;;2.68;80.59
62436;BME280;48480;50.252;18.848;2023-01-25T05:56:32;100381.78;;;2.69;80.71
62436;BME280;48480;50.252;18.848;2023-01-25T05:59:00;100380.16;;;2.72;80.59
62436;BME280;48480;50.252;18.848;2023-01-25T06:01:26;100377.83;;;2.72;80.64
62436;BME280;48480;50.252;18.848;2023-01-25T06:03:52;100381.45;;;2.72;80.43
62436;BME280;48480;50.252;18.848;2023-01-25T06:06:19;100381.29;;;2.73;80.66
62436;BME280;48480;50.252;18.848;2023-01-25T06:08:44;100378.96;;;2.73;80.69
62436;BME280;48480;50.252;18.848;2023-01-25T06:11:13;100378.90;;;2.76;80.54
62436;BME280;48480;50.252;18.848;2023-01-25T06:13:39;100376.31;;;2.78;80.25
62436;BME280;48480;50.252;18.848;2023-01-25T06:16:10;100347.80;;;2.60;79.93
62436;BME280;48480;50.252;18.848;2023-01-25T06:18:36;100378.84;;;2.79;79.89
62436;BME280;48480;50.252;18.848;2023-01-25T06:21:02;100384.48;;;2.80;79.90
62436;BME280;48480;50.252;18.848;2023-01-25T06:23:29;100379.84;;;2.82;79.87
62436;BME280;48480;50.252;18.848;2023-01-25T06:26:05;100377.98;;;2.83;80.05
62436;BME280;48480;50.252;18.848;2023-01-25T06:28:35;100376.39;;;2.79;79.92
62436;BME280;48480;50.252;18.848;2023-01-25T06:31:14;100378.90;;;2.81;79.93
62436;BME280;48480;50.252;18.848;2023-01-25T06:33:40;100376.63;;;2.83;79.63
62436;BME280;48480;50.252;18.848;2023-01-25T06:36:12;100377.14;;;2.83;79.80
62436;BME280;48480;50.252;18.848;2023-01-25T06:38:38;100374.94;;;2.83;79.75
62436;BME280;48480;50.252;18.848;2023-01-25T06:41:06;100371.48;;;2.81;79.78
62436;BME280;48480;50.252;18.848;2023-01-25T06:43:32;100364.24;;;2.74;79.80
62436;BME280;48480;50.252;18.848;2023-01-25T06:46:04;100374.88;;;2.80;80.00
62436;BME280;48480;50.252;18.848;2023-01-25T06:48:31;100371.61;;;2.80;79.98
62436;BME280;48480;50.252;18.848;2023-01-25T06:51:06;100369.36;;;2.81;79.89
62436;BME280;48480;50.252;18.848;2023-01-25T06:53:34;100370.17;;;2.82;79.91
62436;BME280;48480;50.252;18.848;2023-01-25T06:56:02;100369.91;;;2.82;79.97
62436;BME280;48480;50.252;18.848;2023-01-25T06:58:29;100368.46;;;2.85;79.94
62436;BME280;48480;50.252;18.848;2023-01-25T07:01:04;100364.75;;;2.86;79.76
62436;BME280;48480;50.252;18.848;2023-01-25T07:03:30;100360.93;;;2.88;79.62
62436;BME280;48480;50.252;18.848;2023-01-25T07:06:02;100358.45;;;2.89;79.41
62436;BME280;48480;50.252;18.848;2023-01-25T07:08:28;100357.39;;;2.92;79.24
62436;BME280;48480;50.252;18.848;2023-01-25T07:10:55;100355.61;;;2.91;79.07
62436;BME280;48480;50.252;18.848;2023-01-25T07:13:23;100351.98;;;2.90;79.13
62436;BME280;48480;50.252;18.848;2023-01-25T07:18:19;100349.11;;;2.83;79.43
62436;BME280;48480;50.252;18.848;2023-01-25T07:20:44;100340.61;;;2.81;79.67
62436;BME280;48480;50.252;18.848;2023-01-25T07:23:10;100342.79;;;2.84;79.74
62436;BME280;48480;50.252;18.848;2023-01-25T07:25:35;100341.34;;;2.86;79.77
62436;BME280;48480;50.252;18.848;2023-01-25T07:28:01;100335.50;;;2.83;79.78
62436;BME280;48480;50.252;18.848;2023-01-25T07:30:26;100344.58;;;2.88;79.73
62436;BME280;48480;50.252;18.848;2023-01-25T07:32:52;100341.62;;;2.86;79.63
62436;BME280;48480;50.252;18.848;2023-01-25T07:35:19;100326.56;;;2.79;79.81
62436;BME280;48480;50.252;18.848;2023-01-25T07:37:45;100330.07;;;2.84;79.98
62436;BME280;48480;50.252;18.848;2023-01-25T07:40:11;100330.96;;;2.84;79.94
62436;BME280;48480;50.252;18.848;2023-01-25T07:42:38;100335.00;;;2.84;79.90
62436;BME280;48480;50.252;18.848;2023-01-25T07:45:03;100304.27;;;2.64;79.80
62436;BME280;48480;50.252;18.848;2023-01-25T07:47:29;100335.55;;;2.85;79.80
62436;BME280;48480;50.252;18.848;2023-01-25T07:49:54;100333.53;;;2.83;79.78
62436;BME280;48480;50.252;18.848;2023-01-25T07:52:20;100328.86;;;2.82;79.77
62436;BME280;48480;50.252;18.848;2023-01-25T07:54:45;100329.92;;;2.78;79.95
62436;BME280;48480;50.252;18.848;2023-01-25T07:57:13;100328.66;;;2.77;80.06
62436;BME280;48480;50.252;18.848;2023-01-25T07:59:39;100330.97;;;2.74;79.92
62436;BME280;48480;50.252;18.848;2023-01-25T08:02:04;100330.16;;;2.73;79.98
62436;BME280;48480;50.252;18.848;2023-01-25T08:04:30;100325.11;;;2.73;80.07
62436;BME280;48480;50.252;18.848;2023-01-25T08:06:55;100320.02;;;2.73;79.99
62436;BME280;48480;50.252;18.848;2023-01-25T08:09:21;100322.70;;;2.65;79.64
62436;BME280;48480;50.252;18.848;2023-01-25T08:11:46;100322.38;;;2.59;79.97
62436;BME280;48480;50.252;18.848;2023-01-25T08:14:13;100324.30;;;2.52;79.94
62436;BME280;48480;50.252;18.848;2023-01-25T08:16:40;100323.45;;;2.52;80.35
62436;BME280;48480;50.252;18.848;2023-01-25T08:19:08;100325.02;;;2.55;80.37
62436;BME280;48480;50.252;18.848;2023-01-25T08:21:35;100321.54;;;2.57;80.43
62436;BME280;48480;50.252;18.848;2023-01-25T08:24:05;100320.77;;;2.61;80.28
62436;BME280;48480;50.252;18.848;2023-01-25T08:26:32;100314.27;;;2.62;80.43
62436;BME280;48480;50.252;18.848;2023-01-25T08:28:57;100311.45;;;2.60;80.02
62436;BME280;48480;50.252;18.848;2023-01-25T08:31:27;100306.19;;;2.60;80.40
62436;BME280;48480;50.252;18.848;2023-01-25T08:33:53;100300.29;;;2.62;80.63
62436;BME280;48480;50.252;18.848;2023-01-25T08:36:19;100301.14;;;2.64;80.61
62436;BME280;48480;50.252;18.848;2023-01-25T08:38:46;100295.63;;;2.65;80.33
62436;BME280;48480;50.252;18.848;2023-01-25T08:41:13;100294.25;;;2.69;80.24
62436;BME280;48480;50.252;18.848;2023-01-25T08:43:40;100293.26;;;2.73;80.30
62436;BME280;48480;50.252;18.848;2023-01-25T08:46:06;100297.54;;;2.74;80.01
62436;BME280;48480;50.252;18.848;2023-01-25T08:48:31;100294.07;;;2.75;80.06
62436;BME280;48480;50.252;18.848;2023-01-25T08:50:57;100290.39;;;2.75;79.80
62436;BME280;48480;50.252;18.848;2023-01-25T08:53:23;100285.63;;;2.75;80.07
62436;BME280;48480;50.252;18.848;2023-01-25T08:55:48;100283.86;;;2.76;80.30
62436;BME280;48480;50.252;18.848;2023-01-25T08:58:15;100283.48;;;2.78;80.47
62436;BME280;48480;50.252;18.848;2023-01-25T09:00:44;100282.65;;;2.75;80.43
62436;BME280;48480;50.252;18.848;2023-01-25T09:03:10;100285.55;;;2.74;80.53
62436;BME280;48480;50.252;18.848;2023-01-25T09:05:38;100286.23;;;2.76;80.73
62436;BME280;48480;50.252;18.848;2023-01-25T09:08:05;100286.86;;;2.74;80.60
62436;BME280;48480;50.252;18.848;2023-01-25T09:10:32;100284.67;;;2.71;80.40
62436;BME280;48480;50.252;18.848;2023-01-25T09:12:58;100281.52;;;2.70;80.50
62436;BME280;48480;50.252;18.848;2023-01-25T09:15:24;100282.64;;;2.71;80.55
62436;BME280;48480;50.252;18.848;2023-01-25T09:17:51;100278.70;;;2.70;80.45
62436;BME280;48480;50.252;18.848;2023-01-25T09:20:17;100256.73;;;2.55;80.61
62436;BME280;48480;50.252;18.848;2023-01-25T09:22:45;100282.00;;;2.74;80.39
62436;BME280;48480;50.252;18.848;2023-01-25T09:25:10;100275.24;;;2.74;80.36
62436;BME280;48480;50.252;18.848;2023-01-25T09:27:36;100275.75;;;2.75;79.83
62436;BME280;48480;50.252;18.848;2023-01-25T09:30:04;100268.59;;;2.67;79.82
62436;BME280;48480;50.252;18.848;2023-01-25T09:32:30;100248.30;;;2.52;80.25
62436;BME280;48480;50.252;18.848;2023-01-25T09:34:57;100251.36;;;2.55;80.13
62436;BME280;48480;50.252;18.848;2023-01-25T09:37:28;100263.14;;;2.69;80.21
62436;BME280;48480;50.252;18.848;2023-01-25T09:39:56;100255.92;;;2.68;79.98
62436;BME280;48480;50.252;18.848;2023-01-25T09:42:29;100252.32;;;2.70;80.15
62436;BME280;48480;50.252;18.848;2023-01-25T09:45:16;100249.09;;;2.75;80.20
62436;BME280;48480;50.252;18.848;2023-01-25T09:48:08;100247.94;;;2.79;80.18
62436;BME280;48480;50.252;18.848;2023-01-25T09:50:58;100245.35;;;2.81;80.32
62436;BME280;48480;50.252;18.848;2023-01-25T09:53:38;100238.81;;;2.80;80.14
62436;BME280;48480;50.252;18.848;2023-01-25T09:56:21;100233.34;;;2.76;80.11
62436;BME280;48480;50.252;18.848;2023-01-25T09:59:08;100228.98;;;2.77;80.28
62436;BME280;48480;50.252;18.848;2023-01-25T10:01:49;100185.81;;;2.58;80.18
62436;BME280;48480;50.252;18.848;2023-01-25T10:04:21;100217.52;;;2.79;80.19
62436;BME280;48480;50.252;18.848;2023-01-25T10:07:00;100217.02;;;2.80;80.31
62436;BME280;48480;50.252;18.848;2023-01-25T10:09:35;100206.97;;;2.83;80.45
62436;BME280;48480;50.252;18.848;2023-01-25T10:12:17;100204.60;;;2.83;80.42
62436;BME280;48480;50.252;18.848;2023-01-25T10:14:46;100201.79;;;2.86;80.38
62436;BME280;48480;50.252;18.848;2023-01-25T10:17:36;100196.36;;;2.91;80.18
62436;BME280;48480;50.252;18.848;2023-01-25T10:20:30;100190.38;;;2.93;79.93
62436;BME280;48480;50.252;18.848;2023-01-25T10:26:03;100192.45;;;2.84;79.34
62436;BME280;48480;50.252;18.848;2023-01-25T10:31:46;100183.16;;;2.76;79.78
62436;BME280;48480;50.252;18.848;2023-01-25T10:34:18;100177.97;;;2.80;79.98
62436;BME280;48480;50.252;18.848;2023-01-25T10:36:48;100184.80;;;2.86;79.89
62436;BME280;48480;50.252;18.848;2023-01-25T10:39:16;100184.98;;;2.92;79.39
62436;BME280;48480;50.252;18.848;2023-01-25T10:42:05;100178.17;;;2.95;79.28
62436;BME280;48480;50.252;18.848;2023-01-25T10:44:34;100179.78;;;2.99;79.53
62436;BME280;48480;50.252;18.848;2023-01-25T10:49:54;100174.23;;;2.93;78.88
62436;BME280;48480;50.252;18.848;2023-01-25T10:52:23;100166.06;;;2.90;79.02
62436;BME280;48480;50.252;18.848;2023-01-25T10:55:15;100157.76;;;2.93;79.14
62436;BME280;48480;50.252;18.848;2023-01-25T10:57:50;100126.81;;;2.82;78.85
62436;BME280;48480;50.252;18.848;2023-01-25T11:00:39;100144.45;;;2.99;78.43
62436;BME280;48480;50.252;18.848;2023-01-25T11:03:16;100140.43;;;2.99;78.35
62436;BME280;48480;50.252;18.848;2023-01-25T11:05:52;100137.67;;;2.97;78.06
62436;BME280;48480;50.252;18.848;2023-01-25T11:10:51;100126.80;;;2.96;78.13
62436;BME280;48480;50.252;18.848;2023-01-25T11:13:26;100125.57;;;2.97;78.11
62436;BME280;48480;50.252;18.848;2023-01-25T11:16:15;100116.89;;;3.02;78.53
62436;BME280;48480;50.252;18.848;2023-01-25T11:18:50;100116.62;;;3.07;78.14
62436;BME280;48480;50.252;18.848;2023-01-25T11:21:22;100115.98;;;3.11;77.96
62436;BME280;48480;50.252;18.848;2023-01-25T11:26:37;100106.95;;;3.14;77.42
62436;BME280;48480;50.252;18.848;2023-01-25T11:29:18;100098.02;;;3.16;77.23
62436;BME280;48480;50.252;18.848;2023-01-25T11:31:52;100101.41;;;3.12;76.67
62436;BME280;48480;50.252;18.848;2023-01-25T11:34:20;100100.90;;;3.02;76.76
62436;BME280;48480;50.252;18.848;2023-01-25T11:37:23;100095.71;;;2.94;76.59
62436;BME280;48480;50.252;18.848;2023-01-25T11:40:01;100085.55;;;2.83;76.76
62436;BME280;48480;50.252;18.848;2023-01-25T11:48:17;100074.68;;;2.75;77.13
62436;BME280;48480;50.252;18.848;2023-01-25T11:51:05;100072.14;;;2.79;77.05
62436;BME280;48480;50.252;18.848;2023-01-25T12:04:40;100029.23;;;2.99;76.32
62436;BME280;48480;50.252;18.848;2023-01-25T12:07:17;100032.01;;;3.05;76.44
62436;BME280;48480;50.252;18.848;2023-01-25T12:13:02;100040.11;;;3.11;76.06
62436;BME280;48480;50.252;18.848;2023-01-25T12:23:34;100019.09;;;3.20;74.71
62436;BME280;48480;50.252;18.848;2023-01-25T12:28:58;100010.52;;;3.23;74.58
62436;BME280;48480;50.252;18.848;2023-01-25T12:34:34;100001.30;;;3.17;74.73
62436;BME280;48480;50.252;18.848;2023-01-25T12:37:27;99992.72;;;3.24;74.51
62436;BME280;48480;50.252;18.848;2023-01-25T12:40:04;99995.32;;;3.29;74.17
62436;BME280;48480;50.252;18.848;2023-01-25T12:43:07;99963.13;;;3.10;74.30
62436;BME280;48480;50.252;18.848;2023-01-25T12:45:37;99971.23;;;3.25;74.16
62436;BME280;48480;50.252;18.848;2023-01-25T12:51:18;99991.37;;;3.41;73.87
62436;BME280;48480;50.252;18.848;2023-01-25T12:53:55;99961.64;;;3.28;73.93
62436;BME280;48480;50.252;18.848;2023-01-25T12:56:32;99987.18;;;3.53;73.40
62436;BME280;48480;50.252;18.848;2023-01-25T12:59:26;99982.10;;;3.61;73.64
62436;BME280;48480;50.252;18.848;2023-01-25T13:02:17;99979.71;;;3.61;72.92
62436;BME280;48480;50.252;18.848;2023-01-25T13:05:21;99953.48;;;3.50;72.47
62436;BME280;48480;50.252;18.848;2023-01-25T13:10:39;99971.12;;;3.74;72.25
62436;BME280;48480;50.252;18.848;2023-01-25T13:13:24;99969.29;;;3.73;72.41
62436;BME280;48480;50.252;18.848;2023-01-25T13:15:52;99962.72;;;3.67;71.91
62436;BME280;48480;50.252;18.848;2023-01-25T13:20:54;99952.42;;;3.54;72.03
62436;BME280;48480;50.252;18.848;2023-01-25T13:28:50;99947.50;;;3.43;72.22
62436;BME280;48480;50.252;18.848;2023-01-25T13:36:52;99939.98;;;3.37;72.23
62436;BME280;48480;50.252;18.848;2023-01-25T13:44:35;99927.31;;;3.42;73.08
62436;BME280;48480;50.252;18.848;2023-01-25T13:47:06;99923.35;;;3.41;72.97
62436;BME280;48480;50.252;18.848;2023-01-25T13:50:19;99920.02;;;3.44;73.54
62436;BME280;48480;50.252;18.848;2023-01-25T13:52:58;99917.37;;;3.44;72.95
62436;BME280;48480;50.252;18.848;2023-01-25T13:55:24;99921.05;;;3.44;73.13
62436;BME280;48480;50.252;18.848;2023-01-25T13:57:49;99915.66;;;3.44;73.07
62436;BME280;48480;50.252;18.848;2023-01-25T14:00:16;99915.36;;;3.44;73.10
62436;BME280;48480;50.252;18.848;2023-01-25T14:02:43;99901.09;;;3.39;73.05
62436;BME280;48480;50.252;18.848;2023-01-25T14:05:21;99906.02;;;3.42;72.68
62436;BME280;48480;50.252;18.848;2023-01-25T14:07:49;99903.23;;;3.43;72.67
62436;BME280;48480;50.252;18.848;2023-01-25T14:10:21;99900.31;;;3.46;72.66
62436;BME280;48480;50.252;18.848;2023-01-25T14:12:50;99893.33;;;3.46;72.51
62436;BME280;48480;50.252;18.848;2023-01-25T14:15:19;99890.68;;;3.46;72.49
62436;BME280;48480;50.252;18.848;2023-01-25T14:17:45;99892.23;;;3.44;72.42
62436;BME280;48480;50.252;18.848;2023-01-25T14:20:17;99893.07;;;3.37;72.37
62436;BME280;48480;50.252;18.848;2023-01-25T14:22:49;99893.53;;;3.31;72.44
62436;BME280;48480;50.252;18.848;2023-01-25T14:25:19;99888.23;;;3.24;72.24
62436;BME280;48480;50.252;18.848;2023-01-25T14:27:52;99893.73;;;3.18;72.12